sensor_id;sensor_type;location;lat;lon;timestamp;temperature;humidity
7666;DHT22;3875;46.562;4.898;2022-08-19T00:01:42;19.50;93.50
7666;DHT22;3875;46.562;4.898;2022-08-19T00:04:10;19.30;93.80
7666;DHT22;3875;46.562;4.898;2022-08-19T00:06:38;19.30;94.00
7666;DHT22;3875;46.562;4.898;2022-08-19T00:09:08;19.40;93.80
7666;DHT22;3875;46.562;4.898;2022-08-19T00:11:34;19.40;93.40
7666;DHT22;3875;46.562;4.898;2022-08-19T00:14:04;19.40;93.40
7666;DHT22;3875;46.562;4.898;2022-08-19T00:16:31;19.40;93.50
7666;DHT22;3875;46.562;4.898;2022-08-19T00:18:57;19.40;93.50
7666;DHT22;3875;46.562;4.898;2022-08-19T00:21:24;19.40;93.60
7666;DHT22;3875;46.562;4.898;2022-08-19T00:23:50;19.40;93.30
7666;DHT22;3875;46.562;4.898;2022-08-19T00:26:16;19.40;93.30
7666;DHT22;3875;46.562;4.898;2022-08-19T00:28:42;19.50;93.10
7666;DHT22;3875;46.562;4.898;2022-08-19T00:31:09;19.50;93.00
7666;DHT22;3875;46.562;4.898;2022-08-19T00:33:34;19.50;92.70
7666;DHT22;3875;46.562;4.898;2022-08-19T00:36:01;19.50;92.70
7666;DHT22;3875;46.562;4.898;2022-08-19T00:38:28;19.50;92.90
7666;DHT22;3875;46.562;4.898;2022-08-19T00:40:54;19.40;92.90
7666;DHT22;3875;46.562;4.898;2022-08-19T00:43:22;19.40;93.00
7666;DHT22;3875;46.562;4.898;2022-08-19T00:45:48;19.40;92.90
7666;DHT22;3875;46.562;4.898;2022-08-19T00:48:16;19.40;92.80
7666;DHT22;3875;46.562;4.898;2022-08-19T00:50:43;19.40;92.90
7666;DHT22;3875;46.562;4.898;2022-08-19T00:53:14;19.40;92.70
7666;DHT22;3875;46.562;4.898;2022-08-19T00:55:42;19.50;92.60
7666;DHT22;3875;46.562;4.898;2022-08-19T00:58:12;19.50;92.30
7666;DHT22;3875;46.562;4.898;2022-08-19T01:00:39;19.60;92.00
7666;DHT22;3875;46.562;4.898;2022-08-19T01:03:07;19.60;92.00
7666;DHT22;3875;46.562;4.898;2022-08-19T01:05:33;19.50;92.00
7666;DHT22;3875;46.562;4.898;2022-08-19T01:08:02;19.50;92.00
7666;DHT22;3875;46.562;4.898;2022-08-19T01:10:31;19.50;92.20
7666;DHT22;3875;46.562;4.898;2022-08-19T01:12:58;19.50;92.40
7666;DHT22;3875;46.562;4.898;2022-08-19T01:15:35;19.50;92.20
7666;DHT22;3875;46.562;4.898;2022-08-19T01:18:09;19.50;92.30
7666;DHT22;3875;46.562;4.898;2022-08-19T01:20:36;19.50;92.40
7666;DHT22;3875;46.562;4.898;2022-08-19T01:23:02;19.40;92.60
7666;DHT22;3875;46.562;4.898;2022-08-19T01:25:32;19.40;92.70
7666;DHT22;3875;46.562;4.898;2022-08-19T01:28:01;19.50;92.50
7666;DHT22;3875;46.562;4.898;2022-08-19T01:30:29;19.50;92.50
7666;DHT22;3875;46.562;4.898;2022-08-19T01:32:57;19.60;92.20
7666;DHT22;3875;46.562;4.898;2022-08-19T01:35:26;19.50;92.30
7666;DHT22;3875;46.562;4.898;2022-08-19T01:37:55;19.50;92.40
7666;DHT22;3875;46.562;4.898;2022-08-19T01:40:23;19.60;92.20
7666;DHT22;3875;46.562;4.898;2022-08-19T01:42:51;19.70;91.70
7666;DHT22;3875;46.562;4.898;2022-08-19T01:45:20;19.70;91.60
7666;DHT22;3875;46.562;4.898;2022-08-19T01:47:47;19.80;91.40
7666;DHT22;3875;46.562;4.898;2022-08-19T01:50:13;19.70;91.70
7666;DHT22;3875;46.562;4.898;2022-08-19T01:52:41;19.70;91.70
7666;DHT22;3875;46.562;4.898;2022-08-19T01:55:10;19.70;91.60
7666;DHT22;3875;46.562;4.898;2022-08-19T01:57:37;19.70;91.70
7666;DHT22;3875;46.562;4.898;2022-08-19T02:00:07;19.70;91.70
7666;DHT22;3875;46.562;4.898;2022-08-19T02:02:33;19.70;91.60
7666;DHT22;3875;46.562;4.898;2022-08-19T02:04:59;19.70;91.40
7666;DHT22;3875;46.562;4.898;2022-08-19T02:07:25;19.70;91.50
7666;DHT22;3875;46.562;4.898;2022-08-19T02:09:51;19.70;91.60
7666;DHT22;3875;46.562;4.898;2022-08-19T02:12:16;19.70;91.70
7666;DHT22;3875;46.562;4.898;2022-08-19T02:14:42;19.70;91.70
7666;DHT22;3875;46.562;4.898;2022-08-19T02:17:08;19.60;91.80
7666;DHT22;3875;46.562;4.898;2022-08-19T02:19:34;19.60;91.90
7666;DHT22;3875;46.562;4.898;2022-08-19T02:22:00;19.50;92.20
7666;DHT22;3875;46.562;4.898;2022-08-19T02:24:26;19.60;92.10
7666;DHT22;3875;46.562;4.898;2022-08-19T02:26:52;19.70;91.90
7666;DHT22;3875;46.562;4.898;2022-08-19T02:29:18;19.80;91.50
7666;DHT22;3875;46.562;4.898;2022-08-19T02:31:44;19.80;91.40
7666;DHT22;3875;46.562;4.898;2022-08-19T02:34:09;19.70;91.60
7666;DHT22;3875;46.562;4.898;2022-08-19T02:36:35;19.80;91.40
7666;DHT22;3875;46.562;4.898;2022-08-19T02:39:01;19.80;91.40
7666;DHT22;3875;46.562;4.898;2022-08-19T02:41:32;19.80;91.10
7666;DHT22;3875;46.562;4.898;2022-08-19T02:44:01;19.80;91.10
7666;DHT22;3875;46.562;4.898;2022-08-19T02:46:30;19.80;90.90
7666;DHT22;3875;46.562;4.898;2022-08-19T02:48:59;19.90;90.80
7666;DHT22;3875;46.562;4.898;2022-08-19T02:51:30;19.90;90.50
7666;DHT22;3875;46.562;4.898;2022-08-19T02:53:56;19.90;90.50
7666;DHT22;3875;46.562;4.898;2022-08-19T02:56:22;20.00;90.40
7666;DHT22;3875;46.562;4.898;2022-08-19T02:58:49;20.00;90.10
7666;DHT22;3875;46.562;4.898;2022-08-19T03:01:27;20.00;90.20
7666;DHT22;3875;46.562;4.898;2022-08-19T03:03:55;20.00;90.50
7666;DHT22;3875;46.562;4.898;2022-08-19T03:06:21;20.00;90.40
7666;DHT22;3875;46.562;4.898;2022-08-19T03:08:48;20.00;90.30
7666;DHT22;3875;46.562;4.898;2022-08-19T03:11:22;20.00;90.40
7666;DHT22;3875;46.562;4.898;2022-08-19T03:13:48;20.00;90.40
7666;DHT22;3875;46.562;4.898;2022-08-19T03:16:19;20.00;90.40
7666;DHT22;3875;46.562;4.898;2022-08-19T03:18:45;20.00;90.40
7666;DHT22;3875;46.562;4.898;2022-08-19T03:21:21;20.00;90.40
7666;DHT22;3875;46.562;4.898;2022-08-19T03:23:49;20.00;90.40
7666;DHT22;3875;46.562;4.898;2022-08-19T03:26:16;20.00;90.30
7666;DHT22;3875;46.562;4.898;2022-08-19T03:28:43;20.00;90.10
7666;DHT22;3875;46.562;4.898;2022-08-19T03:31:12;20.00;90.20
7666;DHT22;3875;46.562;4.898;2022-08-19T03:33:38;20.00;90.20
7666;DHT22;3875;46.562;4.898;2022-08-19T03:36:09;19.90;90.50
7666;DHT22;3875;46.562;4.898;2022-08-19T03:38:37;20.00;90.50
7666;DHT22;3875;46.562;4.898;2022-08-19T03:41:09;20.00;90.40
7666;DHT22;3875;46.562;4.898;2022-08-19T03:43:39;20.10;90.30
7666;DHT22;3875;46.562;4.898;2022-08-19T03:46:19;20.10;90.10
7666;DHT22;3875;46.562;4.898;2022-08-19T03:48:46;20.10;90.20
7666;DHT22;3875;46.562;4.898;2022-08-19T03:51:19;20.00;90.30
7666;DHT22;3875;46.562;4.898;2022-08-19T03:53:45;20.00;90.40
7666;DHT22;3875;46.562;4.898;2022-08-19T03:56:12;19.90;90.40
7666;DHT22;3875;46.562;4.898;2022-08-19T03:58:39;19.90;90.50
7666;DHT22;3875;46.562;4.898;2022-08-19T04:01:15;19.90;90.50
7666;DHT22;3875;46.562;4.898;2022-08-19T04:03:42;19.90;90.50
7666;DHT22;3875;46.562;4.898;2022-08-19T04:06:16;19.80;90.80
7666;DHT22;3875;46.562;4.898;2022-08-19T04:08:43;19.80;90.80
7666;DHT22;3875;46.562;4.898;2022-08-19T04:11:12;19.80;90.80
7666;DHT22;3875;46.562;4.898;2022-08-19T04:13:38;19.80;90.90
7666;DHT22;3875;46.562;4.898;2022-08-19T04:16:05;19.70;91.30
7666;DHT22;3875;46.562;4.898;2022-08-19T04:18:32;19.80;91.00
7666;DHT22;3875;46.562;4.898;2022-08-19T04:20:58;19.80;90.80
7666;DHT22;3875;46.562;4.898;2022-08-19T04:23:24;19.80;90.90
7666;DHT22;3875;46.562;4.898;2022-08-19T04:25:50;19.90;90.90
7666;DHT22;3875;46.562;4.898;2022-08-19T04:28:16;19.90;90.70
7666;DHT22;3875;46.562;4.898;2022-08-19T04:30:45;19.90;90.90
7666;DHT22;3875;46.562;4.898;2022-08-19T04:33:13;19.90;90.80
7666;DHT22;3875;46.562;4.898;2022-08-19T04:35:43;19.90;90.80
7666;DHT22;3875;46.562;4.898;2022-08-19T04:38:10;19.90;90.70
7666;DHT22;3875;46.562;4.898;2022-08-19T04:40:44;19.90;90.50
7666;DHT22;3875;46.562;4.898;2022-08-19T04:43:29;19.80;90.90
7666;DHT22;3875;46.562;4.898;2022-08-19T04:45:55;19.70;91.10
7666;DHT22;3875;46.562;4.898;2022-08-19T04:48:21;19.70;91.40
7666;DHT22;3875;46.562;4.898;2022-08-19T04:50:57;19.70;91.40
7666;DHT22;3875;46.562;4.898;2022-08-19T04:53:30;19.70;91.80
7666;DHT22;3875;46.562;4.898;2022-08-19T04:55:58;19.60;92.00
7666;DHT22;3875;46.562;4.898;2022-08-19T04:58:26;19.50;92.50
7666;DHT22;3875;46.562;4.898;2022-08-19T05:00:52;19.60;92.10
7666;DHT22;3875;46.562;4.898;2022-08-19T05:03:19;19.50;92.40
7666;DHT22;3875;46.562;4.898;2022-08-19T05:05:46;19.50;92.30
7666;DHT22;3875;46.562;4.898;2022-08-19T05:08:16;19.50;92.60
7666;DHT22;3875;46.562;4.898;2022-08-19T05:10:47;19.50;92.60
7666;DHT22;3875;46.562;4.898;2022-08-19T05:13:13;19.50;92.60
7666;DHT22;3875;46.562;4.898;2022-08-19T05:15:40;19.50;92.80
7666;DHT22;3875;46.562;4.898;2022-08-19T05:18:06;19.50;92.60
7666;DHT22;3875;46.562;4.898;2022-08-19T05:20:50;19.50;92.60
7666;DHT22;3875;46.562;4.898;2022-08-19T05:23:34;19.50;92.90
7666;DHT22;3875;46.562;4.898;2022-08-19T05:26:00;19.50;92.80
7666;DHT22;3875;46.562;4.898;2022-08-19T05:28:26;19.50;92.90
7666;DHT22;3875;46.562;4.898;2022-08-19T05:30:52;19.50;93.30
7666;DHT22;3875;46.562;4.898;2022-08-19T05:33:21;19.50;93.50
7666;DHT22;3875;46.562;4.898;2022-08-19T05:35:48;19.50;93.40
7666;DHT22;3875;46.562;4.898;2022-08-19T05:38:18;19.40;93.50
7666;DHT22;3875;46.562;4.898;2022-08-19T05:40:43;19.40;94.00
7666;DHT22;3875;46.562;4.898;2022-08-19T05:43:12;19.40;93.70
7666;DHT22;3875;46.562;4.898;2022-08-19T05:45:42;19.40;94.00
7666;DHT22;3875;46.562;4.898;2022-08-19T05:48:11;19.50;93.70
7666;DHT22;3875;46.562;4.898;2022-08-19T05:50:39;19.50;93.80
7666;DHT22;3875;46.562;4.898;2022-08-19T05:53:05;19.50;93.70
7666;DHT22;3875;46.562;4.898;2022-08-19T05:55:31;19.50;93.80
7666;DHT22;3875;46.562;4.898;2022-08-19T05:57:57;19.50;94.00
7666;DHT22;3875;46.562;4.898;2022-08-19T06:00:23;19.50;94.10
7666;DHT22;3875;46.562;4.898;2022-08-19T06:02:48;19.50;94.00
7666;DHT22;3875;46.562;4.898;2022-08-19T06:05:14;19.50;94.10
7666;DHT22;3875;46.562;4.898;2022-08-19T06:07:40;19.50;94.20
7666;DHT22;3875;46.562;4.898;2022-08-19T06:10:09;19.50;94.30
7666;DHT22;3875;46.562;4.898;2022-08-19T06:12:36;19.50;94.50
7666;DHT22;3875;46.562;4.898;2022-08-19T06:15:06;19.50;94.30
7666;DHT22;3875;46.562;4.898;2022-08-19T06:17:32;19.60;94.00
7666;DHT22;3875;46.562;4.898;2022-08-19T06:20:00;19.60;94.00
7666;DHT22;3875;46.562;4.898;2022-08-19T06:22:26;19.70;93.70
7666;DHT22;3875;46.562;4.898;2022-08-19T06:24:53;19.70;93.60
7666;DHT22;3875;46.562;4.898;2022-08-19T06:27:20;19.60;93.90
7666;DHT22;3875;46.562;4.898;2022-08-19T06:29:45;19.60;93.80
7666;DHT22;3875;46.562;4.898;2022-08-19T06:32:13;19.60;93.90
7666;DHT22;3875;46.562;4.898;2022-08-19T06:34:40;19.60;94.00
7666;DHT22;3875;46.562;4.898;2022-08-19T06:37:07;19.60;94.30
7666;DHT22;3875;46.562;4.898;2022-08-19T06:39:35;19.60;94.10
7666;DHT22;3875;46.562;4.898;2022-08-19T06:42:03;19.60;94.20
7666;DHT22;3875;46.562;4.898;2022-08-19T06:44:33;19.50;94.50
7666;DHT22;3875;46.562;4.898;2022-08-19T06:47:03;19.50;94.50
7666;DHT22;3875;46.562;4.898;2022-08-19T06:49:30;19.50;94.50
7666;DHT22;3875;46.562;4.898;2022-08-19T06:51:59;19.50;94.90
7666;DHT22;3875;46.562;4.898;2022-08-19T06:54:25;19.50;94.50
7666;DHT22;3875;46.562;4.898;2022-08-19T06:56:51;19.50;94.50
7666;DHT22;3875;46.562;4.898;2022-08-19T06:59:20;19.50;94.70
7666;DHT22;3875;46.562;4.898;2022-08-19T07:01:52;19.60;94.70
7666;DHT22;3875;46.562;4.898;2022-08-19T07:04:24;19.70;94.40
7666;DHT22;3875;46.562;4.898;2022-08-19T07:06:59;19.80;94.10
7666;DHT22;3875;46.562;4.898;2022-08-19T07:09:26;19.80;94.00
7666;DHT22;3875;46.562;4.898;2022-08-19T07:11:53;19.80;94.10
7666;DHT22;3875;46.562;4.898;2022-08-19T07:14:22;19.90;94.00
7666;DHT22;3875;46.562;4.898;2022-08-19T07:16:51;20.00;93.80
7666;DHT22;3875;46.562;4.898;2022-08-19T07:19:18;20.00;93.60
7666;DHT22;3875;46.562;4.898;2022-08-19T07:21:45;20.00;93.30
7666;DHT22;3875;46.562;4.898;2022-08-19T07:24:11;20.00;93.60
7666;DHT22;3875;46.562;4.898;2022-08-19T07:26:40;20.00;93.60
7666;DHT22;3875;46.562;4.898;2022-08-19T07:29:06;19.90;93.80
7666;DHT22;3875;46.562;4.898;2022-08-19T07:31:33;19.70;94.30
7666;DHT22;3875;46.562;4.898;2022-08-19T07:34:04;19.50;95.10
7666;DHT22;3875;46.562;4.898;2022-08-19T07:36:35;19.50;95.50
7666;DHT22;3875;46.562;4.898;2022-08-19T07:39:05;19.50;95.20
7666;DHT22;3875;46.562;4.898;2022-08-19T07:41:31;19.60;95.10
7666;DHT22;3875;46.562;4.898;2022-08-19T07:44:00;19.60;94.80
7666;DHT22;3875;46.562;4.898;2022-08-19T07:46:33;19.70;94.60
7666;DHT22;3875;46.562;4.898;2022-08-19T07:48:59;19.90;94.30
7666;DHT22;3875;46.562;4.898;2022-08-19T07:51:26;19.90;94.20
7666;DHT22;3875;46.562;4.898;2022-08-19T07:53:52;19.90;93.90
7666;DHT22;3875;46.562;4.898;2022-08-19T07:56:20;19.90;94.10
7666;DHT22;3875;46.562;4.898;2022-08-19T07:58:48;19.90;93.90
7666;DHT22;3875;46.562;4.898;2022-08-19T08:01:17;20.00;93.70
7666;DHT22;3875;46.562;4.898;2022-08-19T08:03:44;20.10;93.50
7666;DHT22;3875;46.562;4.898;2022-08-19T08:06:28;20.20;93.30
7666;DHT22;3875;46.562;4.898;2022-08-19T08:09:14;20.20;93.10
7666;DHT22;3875;46.562;4.898;2022-08-19T08:12:04;20.20;93.20
7666;DHT22;3875;46.562;4.898;2022-08-19T08:14:38;20.30;92.90
7666;DHT22;3875;46.562;4.898;2022-08-19T08:17:06;20.30;92.80
7666;DHT22;3875;46.562;4.898;2022-08-19T08:19:32;20.30;92.80
7666;DHT22;3875;46.562;4.898;2022-08-19T08:22:00;20.40;92.80
7666;DHT22;3875;46.562;4.898;2022-08-19T08:24:28;20.40;92.70
7666;DHT22;3875;46.562;4.898;2022-08-19T08:26:54;20.30;92.80
7666;DHT22;3875;46.562;4.898;2022-08-19T08:29:20;20.30;92.60
7666;DHT22;3875;46.562;4.898;2022-08-19T08:31:47;20.20;92.80
7666;DHT22;3875;46.562;4.898;2022-08-19T08:34:13;20.10;93.00
7666;DHT22;3875;46.562;4.898;2022-08-19T08:36:44;20.10;92.90
7666;DHT22;3875;46.562;4.898;2022-08-19T08:39:17;20.10;92.90
7666;DHT22;3875;46.562;4.898;2022-08-19T08:41:58;20.00;92.80
7666;DHT22;3875;46.562;4.898;2022-08-19T08:44:33;19.90;93.20
7666;DHT22;3875;46.562;4.898;2022-08-19T08:47:05;19.90;93.30
7666;DHT22;3875;46.562;4.898;2022-08-19T08:52:32;19.90;93.30
7666;DHT22;3875;46.562;4.898;2022-08-19T08:55:09;19.90;93.10
7666;DHT22;3875;46.562;4.898;2022-08-19T09:00:26;20.00;92.70
7666;DHT22;3875;46.562;4.898;2022-08-19T09:02:54;20.10;92.50
7666;DHT22;3875;46.562;4.898;2022-08-19T09:05:21;20.20;92.50
7666;DHT22;3875;46.562;4.898;2022-08-19T09:10:31;20.50;91.30
7666;DHT22;3875;46.562;4.898;2022-08-19T09:13:11;20.60;90.90
7666;DHT22;3875;46.562;4.898;2022-08-19T09:15:43;20.90;90.80
7666;DHT22;3875;46.562;4.898;2022-08-19T09:18:10;21.00;90.20
7666;DHT22;3875;46.562;4.898;2022-08-19T09:20:36;21.10;88.40
7666;DHT22;3875;46.562;4.898;2022-08-19T09:23:02;21.00;87.90
7666;DHT22;3875;46.562;4.898;2022-08-19T09:25:28;21.00;87.90
7666;DHT22;3875;46.562;4.898;2022-08-19T09:27:54;21.00;87.90
7666;DHT22;3875;46.562;4.898;2022-08-19T09:30:27;21.20;88.70
7666;DHT22;3875;46.562;4.898;2022-08-19T09:32:54;21.30;88.40
7666;DHT22;3875;46.562;4.898;2022-08-19T09:35:24;21.40;88.40
7666;DHT22;3875;46.562;4.898;2022-08-19T09:37:51;21.60;88.40
7666;DHT22;3875;46.562;4.898;2022-08-19T09:40:18;21.70;87.00
7666;DHT22;3875;46.562;4.898;2022-08-19T09:42:44;22.00;86.80
7666;DHT22;3875;46.562;4.898;2022-08-19T09:45:12;22.20;86.30
7666;DHT22;3875;46.562;4.898;2022-08-19T09:47:38;22.60;85.90
7666;DHT22;3875;46.562;4.898;2022-08-19T09:50:06;23.00;85.00
7666;DHT22;3875;46.562;4.898;2022-08-19T09:52:32;23.40;84.00
7666;DHT22;3875;46.562;4.898;2022-08-19T09:54:58;23.60;83.60
7666;DHT22;3875;46.562;4.898;2022-08-19T09:57:24;23.90;82.20
7666;DHT22;3875;46.562;4.898;2022-08-19T09:59:50;24.20;82.10
7666;DHT22;3875;46.562;4.898;2022-08-19T10:02:15;24.70;81.60
7666;DHT22;3875;46.562;4.898;2022-08-19T10:04:41;25.30;81.20
7666;DHT22;3875;46.562;4.898;2022-08-19T10:07:25;25.40;78.50
7666;DHT22;3875;46.562;4.898;2022-08-19T10:09:51;25.60;78.50
7666;DHT22;3875;46.562;4.898;2022-08-19T10:12:17;25.80;77.40
7666;DHT22;3875;46.562;4.898;2022-08-19T10:14:42;26.10;75.90
7666;DHT22;3875;46.562;4.898;2022-08-19T10:17:08;26.20;74.00
7666;DHT22;3875;46.562;4.898;2022-08-19T10:19:34;26.30;74.70
7666;DHT22;3875;46.562;4.898;2022-08-19T10:22:06;26.60;74.40
7666;DHT22;3875;46.562;4.898;2022-08-19T10:24:33;26.60;72.00
7666;DHT22;3875;46.562;4.898;2022-08-19T10:27:00;26.60;71.70
7666;DHT22;3875;46.562;4.898;2022-08-19T10:29:29;26.60;71.90
7666;DHT22;3875;46.562;4.898;2022-08-19T10:31:55;26.60;70.30
7666;DHT22;3875;46.562;4.898;2022-08-19T10:34:22;26.70;70.40
7666;DHT22;3875;46.562;4.898;2022-08-19T10:36:48;26.80;71.30
7666;DHT22;3875;46.562;4.898;2022-08-19T10:39:15;26.90;70.00
7666;DHT22;3875;46.562;4.898;2022-08-19T10:41:41;27.00;69.60
7666;DHT22;3875;46.562;4.898;2022-08-19T10:44:10;27.30;69.70
7666;DHT22;3875;46.562;4.898;2022-08-19T10:46:39;27.50;69.00
7666;DHT22;3875;46.562;4.898;2022-08-19T10:49:08;27.80;69.60
7666;DHT22;3875;46.562;4.898;2022-08-19T10:51:35;27.90;69.50
7666;DHT22;3875;46.562;4.898;2022-08-19T10:54:20;28.10;69.10
7666;DHT22;3875;46.562;4.898;2022-08-19T10:56:46;27.90;69.60
7666;DHT22;3875;46.562;4.898;2022-08-19T10:59:26;27.50;70.30
7666;DHT22;3875;46.562;4.898;2022-08-19T11:01:54;27.30;71.20
7666;DHT22;3875;46.562;4.898;2022-08-19T11:04:23;26.70;69.70
7666;DHT22;3875;46.562;4.898;2022-08-19T11:06:49;26.80;70.40
7666;DHT22;3875;46.562;4.898;2022-08-19T11:09:17;26.90;71.60
7666;DHT22;3875;46.562;4.898;2022-08-19T11:11:43;27.00;71.10
7666;DHT22;3875;46.562;4.898;2022-08-19T11:14:11;27.60;69.40
7666;DHT22;3875;46.562;4.898;2022-08-19T11:16:38;28.10;69.50
7666;DHT22;3875;46.562;4.898;2022-08-19T11:19:09;28.20;68.50
7666;DHT22;3875;46.562;4.898;2022-08-19T11:21:42;28.20;69.50
7666;DHT22;3875;46.562;4.898;2022-08-19T11:24:14;28.20;67.90
7666;DHT22;3875;46.562;4.898;2022-08-19T11:26:42;27.70;66.80
7666;DHT22;3875;46.562;4.898;2022-08-19T11:29:09;27.20;68.50
7666;DHT22;3875;46.562;4.898;2022-08-19T11:31:40;26.80;68.30
7666;DHT22;3875;46.562;4.898;2022-08-19T11:34:08;26.90;68.00
7666;DHT22;3875;46.562;4.898;2022-08-19T11:36:37;27.40;66.60
7666;DHT22;3875;46.562;4.898;2022-08-19T11:39:06;28.10;67.60
7666;DHT22;3875;46.562;4.898;2022-08-19T11:41:32;28.70;63.80
7666;DHT22;3875;46.562;4.898;2022-08-19T11:43:57;28.70;64.30
7666;DHT22;3875;46.562;4.898;2022-08-19T11:46:25;28.70;64.40
7666;DHT22;3875;46.562;4.898;2022-08-19T11:48:51;28.30;63.80
7666;DHT22;3875;46.562;4.898;2022-08-19T11:51:20;28.30;64.80
7666;DHT22;3875;46.562;4.898;2022-08-19T11:53:47;28.10;65.60
7666;DHT22;3875;46.562;4.898;2022-08-19T11:56:13;28.00;66.50
7666;DHT22;3875;46.562;4.898;2022-08-19T11:58:39;28.00;65.50
7666;DHT22;3875;46.562;4.898;2022-08-19T12:01:14;27.80;66.70
7666;DHT22;3875;46.562;4.898;2022-08-19T12:03:42;27.60;66.00
7666;DHT22;3875;46.562;4.898;2022-08-19T12:06:11;27.40;67.60
7666;DHT22;3875;46.562;4.898;2022-08-19T12:08:39;27.10;67.90
7666;DHT22;3875;46.562;4.898;2022-08-19T12:11:05;26.80;68.90
7666;DHT22;3875;46.562;4.898;2022-08-19T12:13:34;26.60;69.40
7666;DHT22;3875;46.562;4.898;2022-08-19T12:16:00;26.60;69.90
7666;DHT22;3875;46.562;4.898;2022-08-19T12:18:27;27.30;69.70
7666;DHT22;3875;46.562;4.898;2022-08-19T12:20:53;28.20;66.20
7666;DHT22;3875;46.562;4.898;2022-08-19T12:23:22;28.80;65.70
7666;DHT22;3875;46.562;4.898;2022-08-19T12:25:49;29.30;64.60
7666;DHT22;3875;46.562;4.898;2022-08-19T12:28:19;29.60;64.00
7666;DHT22;3875;46.562;4.898;2022-08-19T12:30:46;29.30;64.60
7666;DHT22;3875;46.562;4.898;2022-08-19T12:33:11;28.80;65.10
7666;DHT22;3875;46.562;4.898;2022-08-19T12:35:43;28.20;65.10
7666;DHT22;3875;46.562;4.898;2022-08-19T12:38:10;27.80;65.80
7666;DHT22;3875;46.562;4.898;2022-08-19T12:40:37;27.60;67.10
7666;DHT22;3875;46.562;4.898;2022-08-19T12:43:02;28.00;67.90
7666;DHT22;3875;46.562;4.898;2022-08-19T12:45:29;28.70;66.20
7666;DHT22;3875;46.562;4.898;2022-08-19T12:47:54;29.50;64.30
7666;DHT22;3875;46.562;4.898;2022-08-19T12:50:20;30.00;61.00
7666;DHT22;3875;46.562;4.898;2022-08-19T12:52:47;29.90;60.80
7666;DHT22;3875;46.562;4.898;2022-08-19T12:55:14;29.60;60.90
7666;DHT22;3875;46.562;4.898;2022-08-19T12:57:40;29.10;62.40
7666;DHT22;3875;46.562;4.898;2022-08-19T13:00:10;28.80;63.80
7666;DHT22;3875;46.562;4.898;2022-08-19T13:02:39;28.70;62.90
7666;DHT22;3875;46.562;4.898;2022-08-19T13:05:08;28.70;63.60
7666;DHT22;3875;46.562;4.898;2022-08-19T13:07:34;28.40;63.40
7666;DHT22;3875;46.562;4.898;2022-08-19T13:10:00;28.10;64.00
7666;DHT22;3875;46.562;4.898;2022-08-19T13:12:26;27.90;63.20
7666;DHT22;3875;46.562;4.898;2022-08-19T13:14:55;28.40;64.60
7666;DHT22;3875;46.562;4.898;2022-08-19T13:17:21;29.00;62.90
7666;DHT22;3875;46.562;4.898;2022-08-19T13:19:48;29.50;62.10
7666;DHT22;3875;46.562;4.898;2022-08-19T13:22:14;30.00;61.70
7666;DHT22;3875;46.562;4.898;2022-08-19T13:24:39;30.50;61.50
7666;DHT22;3875;46.562;4.898;2022-08-19T13:27:05;30.50;61.10
7666;DHT22;3875;46.562;4.898;2022-08-19T13:29:32;30.30;59.60
7666;DHT22;3875;46.562;4.898;2022-08-19T13:32:17;30.20;60.60
7666;DHT22;3875;46.562;4.898;2022-08-19T13:35:02;30.00;61.00
7666;DHT22;3875;46.562;4.898;2022-08-19T13:37:28;29.70;61.90
7666;DHT22;3875;46.562;4.898;2022-08-19T13:40:15;29.30;61.40
7666;DHT22;3875;46.562;4.898;2022-08-19T13:42:45;28.90;61.50
7666;DHT22;3875;46.562;4.898;2022-08-19T13:45:11;28.10;62.40
7666;DHT22;3875;46.562;4.898;2022-08-19T13:47:38;27.70;64.30
7666;DHT22;3875;46.562;4.898;2022-08-19T13:50:14;27.70;64.50
7666;DHT22;3875;46.562;4.898;2022-08-19T13:52:41;27.80;64.30
7666;DHT22;3875;46.562;4.898;2022-08-19T13:55:08;28.30;64.00
7666;DHT22;3875;46.562;4.898;2022-08-19T13:57:34;28.60;63.10
7666;DHT22;3875;46.562;4.898;2022-08-19T14:00:00;28.50;62.90
7666;DHT22;3875;46.562;4.898;2022-08-19T14:02:27;28.80;63.40
7666;DHT22;3875;46.562;4.898;2022-08-19T14:04:53;29.00;63.10
7666;DHT22;3875;46.562;4.898;2022-08-19T14:07:19;29.20;62.70
7666;DHT22;3875;46.562;4.898;2022-08-19T14:09:44;29.40;62.50
7666;DHT22;3875;46.562;4.898;2022-08-19T14:12:10;29.00;61.10
7666;DHT22;3875;46.562;4.898;2022-08-19T14:14:37;28.70;62.30
7666;DHT22;3875;46.562;4.898;2022-08-19T14:17:06;28.50;62.60
7666;DHT22;3875;46.562;4.898;2022-08-19T14:19:32;28.50;62.20
7666;DHT22;3875;46.562;4.898;2022-08-19T14:21:58;28.50;62.50
7666;DHT22;3875;46.562;4.898;2022-08-19T14:24:23;28.60;63.50
7666;DHT22;3875;46.562;4.898;2022-08-19T14:26:49;28.90;63.20
7666;DHT22;3875;46.562;4.898;2022-08-19T14:29:15;28.90;63.10
7666;DHT22;3875;46.562;4.898;2022-08-19T14:31:41;29.10;62.80
7666;DHT22;3875;46.562;4.898;2022-08-19T14:34:09;29.20;62.40
7666;DHT22;3875;46.562;4.898;2022-08-19T14:36:36;29.30;62.90
7666;DHT22;3875;46.562;4.898;2022-08-19T14:39:04;29.30;62.50
7666;DHT22;3875;46.562;4.898;2022-08-19T14:41:30;29.20;62.30
7666;DHT22;3875;46.562;4.898;2022-08-19T14:43:56;29.10;62.50
7666;DHT22;3875;46.562;4.898;2022-08-19T14:46:27;29.10;62.70
7666;DHT22;3875;46.562;4.898;2022-08-19T14:48:53;29.10;62.80
7666;DHT22;3875;46.562;4.898;2022-08-19T14:51:21;28.80;62.00
7666;DHT22;3875;46.562;4.898;2022-08-19T14:53:48;28.50;63.10
7666;DHT22;3875;46.562;4.898;2022-08-19T14:56:20;28.60;63.80
7666;DHT22;3875;46.562;4.898;2022-08-19T14:58:46;28.70;62.70
7666;DHT22;3875;46.562;4.898;2022-08-19T15:01:13;28.80;63.10
7666;DHT22;3875;46.562;4.898;2022-08-19T15:03:39;28.90;63.10
7666;DHT22;3875;46.562;4.898;2022-08-19T15:06:06;29.00;63.50
7666;DHT22;3875;46.562;4.898;2022-08-19T15:08:35;29.10;63.10
7666;DHT22;3875;46.562;4.898;2022-08-19T15:11:02;29.00;62.90
7666;DHT22;3875;46.562;4.898;2022-08-19T15:13:32;29.00;63.10
7666;DHT22;3875;46.562;4.898;2022-08-19T15:15:58;29.00;63.60
7666;DHT22;3875;46.562;4.898;2022-08-19T15:18:24;29.10;63.30
7666;DHT22;3875;46.562;4.898;2022-08-19T15:20:50;29.20;63.30
7666;DHT22;3875;46.562;4.898;2022-08-19T15:23:17;29.20;63.80
7666;DHT22;3875;46.562;4.898;2022-08-19T15:25:43;29.30;63.40
7666;DHT22;3875;46.562;4.898;2022-08-19T15:28:09;29.20;63.40
7666;DHT22;3875;46.562;4.898;2022-08-19T15:30:39;29.10;63.40
7666;DHT22;3875;46.562;4.898;2022-08-19T15:33:05;29.00;64.10
7666;DHT22;3875;46.562;4.898;2022-08-19T15:35:31;28.80;64.10
7666;DHT22;3875;46.562;4.898;2022-08-19T15:37:57;28.50;64.20
7666;DHT22;3875;46.562;4.898;2022-08-19T15:40:25;28.30;64.90
7666;DHT22;3875;46.562;4.898;2022-08-19T15:42:51;28.30;65.60
7666;DHT22;3875;46.562;4.898;2022-08-19T15:45:19;28.50;65.10
7666;DHT22;3875;46.562;4.898;2022-08-19T15:47:45;28.50;64.40
7666;DHT22;3875;46.562;4.898;2022-08-19T15:50:18;28.40;64.90
7666;DHT22;3875;46.562;4.898;2022-08-19T15:52:48;28.40;65.10
7666;DHT22;3875;46.562;4.898;2022-08-19T15:55:15;28.30;65.50
7666;DHT22;3875;46.562;4.898;2022-08-19T15:57:41;28.40;65.40
7666;DHT22;3875;46.562;4.898;2022-08-19T16:00:25;28.40;65.50
7666;DHT22;3875;46.562;4.898;2022-08-19T16:03:13;28.60;64.40
7666;DHT22;3875;46.562;4.898;2022-08-19T16:05:58;28.70;64.60
7666;DHT22;3875;46.562;4.898;2022-08-19T16:08:42;28.90;64.80
7666;DHT22;3875;46.562;4.898;2022-08-19T16:11:11;28.90;64.20
7666;DHT22;3875;46.562;4.898;2022-08-19T16:13:38;28.80;64.20
7666;DHT22;3875;46.562;4.898;2022-08-19T16:16:05;28.70;64.50
7666;DHT22;3875;46.562;4.898;2022-08-19T16:18:31;28.40;64.40